world map with HFT marked

HFT - Airport

This information may not be accurate or current and is not valid for navigation or flight planning. No warranty of fitness for any purpose is made or implied.

flag of Norway

Donate via PayPal

Additional information is available on the NEW Great Circle Mapper

Location
City:  Hammerfest, Norway
ICAO / IATA:ENHF / HFT

Details
Type:Airport (Aerodrome, Airfield)
Latitude:70°40'46"N (70.679444)
Longitude:23°40'06"E (23.668333)
Elevation:799 ft (244 m)
Runways:1
Longest:2625 × 66 ft (800 × 20 m)

Time
Timezone:UTC+1 (DST+4)
Local Time:

Weather
METAR:ENHF  041350Z VRB03KT CAVOK M13/M19 Q1020 RMK WIND 1254FT 12009KT

Related Locations
Nearby:
Farthest:NZWD: 11603 mi / 18674 km
McMurdo Station [Williams Field], Ross Island, AQ

Find:

   beyond  
but within

Other Information
Maps:
Sources:

  


 


Great Circle Mapper   Great Circle Mapper
Great Circle Mapper FAQ   Great Circle Mapper FAQ
  Karl's Home Page
KLSē   KLSē Home
   GC on Facebook
Airlines of the World   Airlines of the World
Donate via PayPal


Copyright © 2004-2019, Karl L. Swartz. All rights reserved.
All trademarks mentioned herein belong to their respective owners.

Please see credits for attribution and copyright information.

Karl Swartz <karl@kls2.com>
  Powered by FreeBSD
Valid HTML 4.01!
Labeled with ICRA
hCard Microformat
Geo Microformat